カシュガル の空港の天気 - METARとTAF

カシュガル空港 ( ZWSH / KHG ) - 中国 新疆ウイグル自治区カシュガル市
飛行場実況気象(Metar)
観測時間01/22 02:00 CST (01/21 18:00 UTC)
風向・風速北西 3m/s
視程9000m
天気現象
-
気温-5℃
湿度58%
気圧1018hPa
METARZWSH 211800Z AUTO 32003MPS 9000 M05/M12 Q1018
過去の天気等 Google飛行場航空写真 Wunderground天気予報

過去48時間のMETAR

飛行場予報(TAF)
発表時間: 1/21 23:12 CST (1/21 15:12 UTC)
予報対象時間: 22日2時 CST ~ 23日2時 CST
風向・風速北西 4m/s
視程8,000m
なし
22日12時 CST ~ 22日13時 CST に徐々に
風向・風速東 3m/s
22日22時 CST ~ 22日23時 CST に徐々に
風向・風速北西 4m/s
TAF ZWSH 211512Z 2118/2218 32004MPS 8000 NSC TX03/2209Z TNM08/00Z
BECMG 2204/2205 09003MPS
BECMG 2214/2215 32004MPS